METAR Data
IDs: Format: Raw Decoded Include TAF

Data at: 2120 UTC 20 Nov 2018

KF46 202115Z AUTO 01007KT 10SM CLR 16/01 A3033 RMK AO2 T01560009
KF46 202055Z AUTO 02009KT 10SM CLR 16/01 A3033 RMK AO2 T01550008
KF46 202035Z AUTO 36008KT 10SM CLR 16/01 A3033 RMK AO2 T01560006
KF46 202015Z AUTO 36006KT 10SM CLR 16/01 A3033 RMK AO2 T01550005
KF46 201955Z AUTO 03007KT 10SM CLR 16/00 A3034 RMK AO2 T01560004
KF46 201935Z AUTO 02008KT 10SM CLR 15/00 A3035 RMK AO2 T01530001
KF46 201915Z AUTO 04010KT 10SM CLR 16/00 A3035 RMK AO2 T01560003
KF46 201855Z AUTO 03010KT 10SM CLR 15/00 A3036 RMK AO2 T01530003
KF46 201835Z AUTO 02011G15KT 10SM CLR 15/00 A3036 RMK AO2 T01490001
KF46 201815Z AUTO 04010KT 10SM CLR 15/00 A3038 RMK AO2 T01490004
KF46 201755Z AUTO 05010KT 10SM CLR 14/00 A3039 RMK AO2 T01420001 10146 20037
KF46 201735Z AUTO 02011G14KT 10SM CLR 14/00 A3040 RMK AO2 T01410002
KF46 201715Z AUTO 05009KT 10SM CLR 14/01 A3041 RMK AO2 T01380006
KF46 201655Z AUTO 06011G17KT 10SM CLR 13/01 A3041 RMK AO2 T01330007
KF46 201635Z AUTO 05011KT 10SM CLR 13/01 A3041 RMK AO2 T01270008
KF46 201615Z AUTO 05009G14KT 10SM CLR 12/01 A3041 RMK AO2 T01210008
KF46 201555Z AUTO 05009KT 10SM CLR 12/02 A3041 RMK AO2 T01160024
KF46 201535Z AUTO 04006KT 10SM CLR 10/03 A3040 RMK AO2 T01040033
KF46 201515Z AUTO 04005KT 10SM CLR 09/04 A3040 RMK AO2 T00900036
KF46 201455Z AUTO 02007KT 10SM CLR 08/03 A3039 RMK AO2 T00800030
KF46 201435Z AUTO 02007KT 10SM CLR 07/03 A3039 RMK AO2 T00730030
KF46 201415Z AUTO 01006KT 10SM CLR 06/03 A3038 RMK AO2 T00630030
KF46 201355Z AUTO 36005KT 10SM CLR 05/03 A3037 RMK AO2 T00510029
KF46 201335Z AUTO 02004KT 10SM CLR 05/03 A3036 RMK AO2 T00450025
KF46 201315Z AUTO 01004KT 10SM CLR 04/02 A3035 RMK AO2 T00400023
KF46 201255Z AUTO 01005KT 10SM CLR 04/02 A3035 RMK AO2 T00400023
KF46 201235Z AUTO 01004KT 10SM CLR 04/03 A3034 RMK AO2 T00390025
KF46 201215Z AUTO 01005KT 10SM CLR 04/03 A3034 RMK AO2 T00400025
KF46 201155Z AUTO 01004KT 10SM CLR 04/03 A3033 RMK AO2 T00410026 10064 20040
KF46 201135Z AUTO 01005KT 10SM CLR 04/03 A3033 RMK AO2 T00400027
KF46 201115Z AUTO 02005KT 10SM CLR 04/03 A3032 RMK AO2 T00420028
KF46 201055Z AUTO 01004KT 10SM CLR 04/03 A3031 RMK AO2 T00440030
KF46 201035Z AUTO 36004KT 10SM CLR 05/03 A3031 RMK AO2 T00500034
KF46 201015Z AUTO 36004KT 10SM CLR 05/04 A3031 RMK AO2 T00490039
KF46 200955Z AUTO 35005KT 10SM CLR 05/05 A3030 RMK AO2 T00480045
KF46 200935Z AUTO 34003KT 10SM CLR 05/04 A3030 RMK AO2 T00500042
KF46 200915Z AUTO 00000KT 10SM CLR 04/04 A3030 RMK AO2 T00430038
KF46 200855Z AUTO 32003KT 10SM CLR 05/04 A3030 RMK AO2 T00540041
KF46 200835Z AUTO 00000KT 10SM CLR 04/03 A3030 RMK AO2 T00400031
KF46 200815Z AUTO 00000KT 10SM CLR 05/03 A3029 RMK AO2 T00470027
KF46 200755Z AUTO 00000KT 10SM CLR 05/03 A3029 RMK AO2 T00530028
KF46 200735Z AUTO 00000KT 10SM CLR 06/03 A3029 RMK AO2 T00560031
KF46 200715Z AUTO 00000KT 10SM CLR 06/03 A3029 RMK AO2 T00560028
KF46 200655Z AUTO 00000KT 10SM CLR 06/03 A3028 RMK AO2 T00600031
KF46 200635Z AUTO 02003KT 10SM CLR 06/04 A3028 RMK AO2 T00600035
KF46 200620Z AUTO 00000KT 10SM CLR 05/03 A3028 RMK AO2 T00530032
KF46 200555Z AUTO 00000KT 10SM CLR 06/03 A3028 RMK AO2 T00600031 10110 20053 401350040
KF46 200535Z AUTO 00000KT 10SM CLR 06/03 A3028 RMK AO2 T00580034
KF46 200515Z AUTO 00000KT 10SM CLR 06/03 A3028 RMK AO2 T00590032
KF46 200455Z AUTO 00000KT 10SM CLR 06/05 A3027 RMK AO2 T00600047
KF46 200435Z AUTO 36003KT 10SM CLR 06/04 A3027 RMK AO2 T00630038
KF46 200415Z AUTO 00000KT 10SM CLR 06/03 A3027 RMK AO2 T00630032
KF46 200355Z AUTO 00000KT 10SM CLR 07/03 A3026 RMK AO2 T00700034
KF46 200335Z AUTO 00000KT 10SM CLR 06/04 A3026 RMK AO2 T00640035
KF46 200315Z AUTO 00000KT 10SM CLR 08/03 A3026 RMK AO2 T00810030
KF46 200255Z AUTO 00000KT 10SM CLR 08/03 A3026 RMK AO2 T00820031
KF46 200235Z AUTO 00000KT 10SM CLR 08/03 A3025 RMK AO2 T00840034
KF46 200215Z AUTO 00000KT 10SM CLR 09/03 A3024 RMK AO2 T00880034
KF46 200155Z AUTO 03003KT 7SM CLR 09/04 A3023 RMK AO2 T00870036
KF46 200135Z AUTO 03003KT 10SM CLR 09/04 A3023 RMK AO2 T00870037
KF46 200115Z AUTO 02003KT 10SM CLR 09/04 A3022 RMK AO2 T00940037
KF46 200055Z AUTO 00000KT 10SM CLR 09/04 A3021 RMK AO2 T00910037
KF46 200035Z AUTO 00000KT 10SM CLR 09/04 A3021 RMK AO2 T00940039
KF46 200015Z AUTO 00000KT 10SM CLR 11/04 A3020 RMK AO2 T01070040
KF46 192355Z AUTO 34003KT 10SM CLR 11/04 A3019 RMK AO2 T01110035 10135 20097
KF46 192335Z AUTO 33004KT 10SM CLR 12/03 A3019 RMK AO2 T01170033
KF46 192315Z AUTO 33004KT 10SM CLR 12/03 A3018 RMK AO2 T01230034
KF46 192255Z AUTO 35005KT 10SM CLR 13/03 A3018 RMK AO2 T01270033
KF46 192235Z AUTO 33007KT 10SM CLR 13/03 A3017 RMK AO2 T01300032
KF46 192215Z AUTO 36005KT 10SM CLR 13/03 A3017 RMK AO2 T01340033
KF46 192200Z AUTO 02003KT 10SM CLR 13/03 A3017 RMK AO2 T01340033
KF46 192135Z AUTO 31004KT 10SM CLR 13/03 A3017 RMK AO2 T01310030
KF46 192115Z AUTO 35004KT 10SM CLR 13/03 A3017 RMK AO2 T01320032
KF46 192055Z AUTO 36007KT 10SM CLR 13/04 A3017 RMK AO2 T01340035
KF46 192035Z AUTO 01004KT 10SM CLR 13/03 A3018 RMK AO2 T01270031
KF46 192015Z AUTO 32004KT 10SM CLR 12/03 A3018 RMK AO2 T01230028
KF46 191955Z AUTO 05004KT 10SM CLR 12/03 A3019 RMK AO2 T01210029
KF46 191935Z AUTO 34005KT 10SM CLR 12/03 A3019 RMK AO2 T01170025
KF46 191915Z AUTO 01005KT 10SM CLR 12/03 A3021 RMK AO2 T01160027
KF46 191855Z AUTO 34005KT 10SM CLR 11/03 A3021 RMK AO2 T01130027
KF46 191835Z AUTO 00000KT 10SM CLR 11/02 A3023 RMK AO2 T01070024
KF46 191815Z AUTO 01004KT 10SM CLR 10/02 A3024 RMK AO2 T01030022
KF46 191755Z AUTO 35005KT 10SM CLR 10/02 A3025 RMK AO2 T00990023 10099 20045
KF46 191735Z AUTO 31004KT 10SM CLR 09/03 A3026 RMK AO2 T00920026
KF46 191715Z AUTO 36003KT 10SM CLR 09/03 A3026 RMK AO2 T00900026
KF46 191655Z AUTO 34003KT 10SM BKN037 08/02 A3028 RMK AO2 T00790022
KF46 191635Z AUTO 35005KT 10SM OVC037 08/02 A3028 RMK AO2 LTG DSNT SE T00770022
KF46 191620Z AUTO 03004KT 10SM OVC035 07/02 A3026 RMK AO2 T00740020
KF46 191555Z AUTO 04004KT 10SM OVC037 07/02 A3027 RMK AO2 T00680020
KF46 191535Z AUTO 36004KT 10SM OVC037 07/02 A3027 RMK AO2 T00650020
KF46 191515Z AUTO 03005KT 10SM OVC037 06/02 A3027 RMK AO2 T00610019
KF46 191455Z AUTO 01005KT 10SM OVC035 06/02 A3027 RMK AO2 T00580019
KF46 191435Z AUTO 04003KT 10SM OVC033 06/02 A3027 RMK AO2 T00560018
KF46 191415Z AUTO 01005KT 10SM OVC033 05/02 A3026 RMK AO2 T00540017
KF46 191355Z AUTO 03004KT 10SM OVC035 05/02 A3025 RMK AO2 T00510016
KF46 191335Z AUTO 02005KT 10SM OVC037 05/02 A3023 RMK AO2 T00500020
KF46 191315Z AUTO 01003KT 10SM OVC037 05/02 A3024 RMK AO2 T00490018
KF46 191255Z AUTO 36003KT 10SM OVC040 05/02 A3024 RMK AO2 T00480016
KF46 191235Z AUTO 34003KT 10SM BKN040 OVC048 05/01 A3024 RMK AO2 T00460013
KF46 191215Z AUTO 34003KT 10SM BKN042 OVC048 05/01 A3023 RMK AO2 T00450011
KF46 191155Z AUTO 33005KT 10SM OVC043 05/01 A3023 RMK AO2 T00450013 10055 20040
KF46 191135Z AUTO 33005KT 10SM BKN045 04/01 A3022 RMK AO2 T00430012
KF46 191115Z AUTO 32005KT 10SM CLR 04/01 A3022 RMK AO2 LTG DSNT SE T00400010
KF46 191055Z AUTO 33006KT 10SM BKN044 04/02 A3021 RMK AO2 LTG DSNT SE AND S T00430016
KF46 191035Z AUTO 36007KT 10SM BKN044 05/02 A3020 RMK AO2 T00450018
KF46 191015Z AUTO 34008KT 10SM BKN044 05/02 A3021 RMK AO2 LTG DSNT SE T00470019
KF46 190955Z AUTO 34005KT 10SM BKN044 05/02 A3021 RMK AO2 T00460019
KF46 190935Z AUTO 33006KT 10SM OVC046 05/02 A3021 RMK AO2 T00480018